createdAt,value
2024-02-09T00:01:54.402Z,6.18
2024-02-09T00:04:22.869Z,6.14
2024-02-09T00:06:52.524Z,6.09
2024-02-09T00:09:21.092Z,6.09
2024-02-09T00:11:51.089Z,6.08
2024-02-09T00:14:19.751Z,6.09
2024-02-09T00:16:48.131Z,6.08
2024-02-09T00:19:16.741Z,6.07
2024-02-09T00:21:45.229Z,6.00
2024-02-09T00:24:13.566Z,5.99
2024-02-09T00:26:42.866Z,6.01
2024-02-09T00:29:11.622Z,5.97
2024-02-09T00:31:40.107Z,5.91
2024-02-09T00:34:08.689Z,5.86
2024-02-09T00:36:37.398Z,5.87
2024-02-09T00:39:07.202Z,5.88
2024-02-09T00:41:35.703Z,5.84
2024-02-09T00:44:04.694Z,5.82
2024-02-09T00:46:34.245Z,5.80
2024-02-09T00:49:04.911Z,5.78
2024-02-09T00:51:33.402Z,5.78
2024-02-09T00:54:04.202Z,5.78
2024-02-09T00:56:34.172Z,5.75
2024-02-09T00:59:02.677Z,5.72
2024-02-09T01:01:34.433Z,5.68
2024-02-09T01:04:03.016Z,5.63
2024-02-09T01:06:31.624Z,5.63
2024-02-09T01:09:00.044Z,5.61
2024-02-09T01:11:31.728Z,5.56
2024-02-09T01:14:19.490Z,5.58
2024-02-09T01:17:06.744Z,5.64
2024-02-09T01:19:53.509Z,5.64
2024-02-09T01:22:40.329Z,5.64
2024-02-09T01:25:28.106Z,5.58
2024-02-09T01:28:14.835Z,5.55
2024-02-09T01:31:01.543Z,5.57
2024-02-09T01:33:48.530Z,5.54
2024-02-09T01:36:35.578Z,5.52
2024-02-09T01:39:22.323Z,5.53
2024-02-09T01:42:09.109Z,5.54
2024-02-09T01:44:55.904Z,5.52
2024-02-09T01:47:43.167Z,5.53
2024-02-09T01:50:30.578Z,5.54
2024-02-09T01:53:18.078Z,5.53
2024-02-09T01:56:05.800Z,5.51
2024-02-09T01:58:52.641Z,5.53
2024-02-09T02:01:39.601Z,5.48
2024-02-09T02:04:26.660Z,5.40
2024-02-09T02:07:13.446Z,5.31
2024-02-09T02:10:00.541Z,5.24
2024-02-09T02:12:47.741Z,5.21
2024-02-09T02:15:34.178Z,5.16
2024-02-09T02:18:21.166Z,5.14
2024-02-09T02:21:08.093Z,5.19
2024-02-09T02:23:58.699Z,5.27
2024-02-09T02:26:45.437Z,5.31
2024-02-09T02:29:32.178Z,5.33
2024-02-09T02:32:19.099Z,5.34
2024-02-09T02:35:05.914Z,5.35
2024-02-09T02:37:53.110Z,5.32
2024-02-09T02:40:40.214Z,5.29
2024-02-09T02:43:08.395Z,5.27
2024-02-09T02:45:37.971Z,5.29
2024-02-09T02:48:25.457Z,5.30
2024-02-09T02:51:12.622Z,5.32
2024-02-09T02:53:59.494Z,5.34
2024-02-09T02:56:46.357Z,5.34
2024-02-09T02:59:33.027Z,5.34
2024-02-09T03:02:19.879Z,5.34
2024-02-09T03:04:48.141Z,5.29
2024-02-09T03:07:49.759Z,5.27
2024-02-09T03:10:05.080Z,5.25
2024-02-09T03:12:34.132Z,5.28
2024-02-09T03:15:02.340Z,5.28
2024-02-09T03:17:33.729Z,5.31
2024-02-09T03:20:02.807Z,5.32
2024-02-09T03:22:31.962Z,5.34
2024-02-09T03:25:03.686Z,5.38
2024-02-09T03:27:40.480Z,5.45
2024-02-09T03:30:10.016Z,5.44
2024-02-09T03:32:46.260Z,5.43
2024-02-09T03:35:14.857Z,5.45
2024-02-09T03:37:46.285Z,5.52
2024-02-09T03:40:15.364Z,5.65
2024-02-09T03:42:43.681Z,5.76
2024-02-09T03:45:11.960Z,5.86
2024-02-09T03:47:40.909Z,5.94
2024-02-09T03:50:09.645Z,6.00
2024-02-09T03:52:38.856Z,6.04
2024-02-09T03:55:08.882Z,6.06
2024-02-09T03:57:37.437Z,6.11
2024-02-09T04:00:06.277Z,6.15
2024-02-09T04:02:40.286Z,6.19
2024-02-09T04:05:08.814Z,6.24
2024-02-09T04:07:37.247Z,6.25
2024-02-09T04:10:26.181Z,6.27
2024-02-09T04:12:55.460Z,6.28
2024-02-09T04:15:23.752Z,6.30
2024-02-09T04:17:53.495Z,6.36
2024-02-09T04:20:21.880Z,6.42
2024-02-09T04:22:52.623Z,6.45
2024-02-09T04:25:21.077Z,6.47
2024-02-09T04:27:51.072Z,6.49
2024-02-09T04:30:19.877Z,6.48
2024-02-09T04:32:48.190Z,6.45
2024-02-09T04:35:18.604Z,6.43
2024-02-09T04:37:47.251Z,6.39
2024-02-09T04:40:15.655Z,6.34
2024-02-09T04:42:44.006Z,6.31
2024-02-09T04:45:12.384Z,6.29
2024-02-09T04:47:40.584Z,6.27
2024-02-09T04:50:09.195Z,6.26
2024-02-09T04:52:37.598Z,6.27
2024-02-09T04:55:07.721Z,6.27
2024-02-09T04:57:36.114Z,6.20
2024-02-09T05:00:04.881Z,6.17
2024-02-09T05:02:39.484Z,6.14
2024-02-09T05:05:09.275Z,6.20
2024-02-09T05:07:38.206Z,6.26
2024-02-09T05:10:06.972Z,6.29
2024-02-09T05:12:37.171Z,6.32
2024-02-09T05:15:05.813Z,6.35
2024-02-09T05:17:35.149Z,6.35
2024-02-09T05:20:03.936Z,6.34
2024-02-09T05:22:32.207Z,6.35
2024-02-09T05:25:00.622Z,6.35
2024-02-09T05:27:28.791Z,6.35
2024-02-09T05:29:56.916Z,6.36
2024-02-09T05:32:26.365Z,6.38
2024-02-09T05:34:59.141Z,6.39
2024-02-09T05:37:27.929Z,6.42
2024-02-09T05:39:58.021Z,6.44
2024-02-09T05:42:26.379Z,6.48
2024-02-09T05:44:54.642Z,6.56
2024-02-09T05:47:22.869Z,6.64
2024-02-09T05:49:53.285Z,6.73
2024-02-09T05:52:21.666Z,6.82
2024-02-09T05:54:49.955Z,6.89
2024-02-09T05:57:18.504Z,6.98
2024-02-09T05:59:47.128Z,7.07
2024-02-09T06:02:15.360Z,7.15
2024-02-09T06:04:43.647Z,7.22
2024-02-09T06:07:11.956Z,7.29
2024-02-09T06:09:41.135Z,7.35
2024-02-09T06:12:09.434Z,7.41
2024-02-09T06:14:37.717Z,7.49
2024-02-09T06:17:05.947Z,7.55
2024-02-09T06:19:34.260Z,7.60
2024-02-09T06:22:06.708Z,7.63
2024-02-09T06:24:35.097Z,7.68
2024-02-09T06:27:03.339Z,7.76
2024-02-09T06:29:33.164Z,7.86
2024-02-09T06:32:01.636Z,7.95
2024-02-09T06:34:30.060Z,7.98
2024-02-09T06:36:59.374Z,8.02
2024-02-09T06:39:27.664Z,8.06
2024-02-09T06:41:55.928Z,8.09
2024-02-09T06:44:25.196Z,8.14
2024-02-09T06:46:53.498Z,8.20
2024-02-09T06:49:22.045Z,8.27
2024-02-09T06:51:52.618Z,8.31
2024-02-09T06:54:20.746Z,8.38
2024-02-09T06:56:48.908Z,8.45
2024-02-09T06:59:17.543Z,8.55
2024-02-09T07:01:48.824Z,8.62
2024-02-09T07:04:20.121Z,8.71
2024-02-09T07:06:50.182Z,8.82
2024-02-09T07:09:32.425Z,8.96
2024-02-09T07:12:05.500Z,9.08
2024-02-09T07:14:35.054Z,9.19
2024-02-09T07:17:03.519Z,9.28
2024-02-09T07:19:33.492Z,9.37
2024-02-09T07:22:01.792Z,9.44
2024-02-09T07:24:29.991Z,9.51
2024-02-09T07:26:58.139Z,9.56
2024-02-09T07:29:26.346Z,9.55
2024-02-09T07:31:57.107Z,9.60
2024-02-09T07:34:25.382Z,9.64
2024-02-09T07:36:56.260Z,9.65
2024-02-09T07:39:24.679Z,9.71
2024-02-09T07:41:52.929Z,9.71
2024-02-09T07:44:21.162Z,9.73
2024-02-09T07:46:49.500Z,9.76
2024-02-09T07:49:18.354Z,9.76
2024-02-09T07:51:46.712Z,9.80
2024-02-09T07:54:14.882Z,9.84
2024-02-09T07:56:43.227Z,9.89
2024-02-09T07:59:11.907Z,9.98
2024-02-09T08:01:40.170Z,10.08
2024-02-09T08:04:08.433Z,10.20
2024-02-09T08:06:36.754Z,10.33
2024-02-09T08:09:05.069Z,10.46
2024-02-09T08:11:33.249Z,10.57
2024-02-09T08:14:02.683Z,10.65
2024-02-09T08:16:30.990Z,10.78
2024-02-09T08:18:59.248Z,10.89
2024-02-09T08:21:27.452Z,11.04
2024-02-09T08:23:55.744Z,11.15
2024-02-09T08:26:25.290Z,11.24
2024-02-09T08:28:53.744Z,11.30
2024-02-09T08:31:21.982Z,11.36
2024-02-09T08:33:53.090Z,11.36
2024-02-09T08:36:24.834Z,11.40
2024-02-09T08:38:56.165Z,11.42
2024-02-09T08:41:25.120Z,11.42
2024-02-09T08:43:53.816Z,11.44
2024-02-09T08:46:23.938Z,11.50
2024-02-09T08:48:52.320Z,11.55
2024-02-09T08:51:20.622Z,11.62
2024-02-09T08:53:49.228Z,11.69
2024-02-09T08:56:17.741Z,11.78
2024-02-09T08:58:47.830Z,11.90
2024-02-09T09:01:16.313Z,11.93
2024-02-09T09:03:47.553Z,11.98
2024-02-09T09:06:16.485Z,12.03
2024-02-09T09:08:44.861Z,12.07
2024-02-09T09:11:14.456Z,12.17
2024-02-09T09:13:42.904Z,12.11
2024-02-09T09:16:11.762Z,12.13
2024-02-09T09:18:41.190Z,12.15
2024-02-09T09:21:09.474Z,12.26
2024-02-09T09:23:38.599Z,12.32
2024-02-09T09:26:17.295Z,12.34
2024-02-09T09:28:53.793Z,12.42
2024-02-09T09:31:22.438Z,12.45
2024-02-09T09:33:52.013Z,12.52
2024-02-09T09:36:20.445Z,12.59
2024-02-09T09:38:48.826Z,12.56
2024-02-09T09:41:19.662Z,12.63
2024-02-09T09:43:48.716Z,12.70
2024-02-09T09:46:19.751Z,12.76
2024-02-09T09:48:50.449Z,12.81
2024-02-09T09:51:21.884Z,12.89
2024-02-09T09:53:53.973Z,12.96
2024-02-09T09:56:23.825Z,13.06
2024-02-09T09:58:52.767Z,13.07
2024-02-09T10:01:23.651Z,13.12
2024-02-09T10:03:56.042Z,13.13
2024-02-09T10:06:25.568Z,13.20
2024-02-09T10:08:53.923Z,13.23
2024-02-09T10:11:22.679Z,13.32
2024-02-09T10:13:54.655Z,13.36
2024-02-09T10:16:23.805Z,13.44
2024-02-09T10:18:53.276Z,13.49
2024-02-09T10:21:22.081Z,13.49
2024-02-09T10:23:50.226Z,13.52
2024-02-09T10:26:18.459Z,13.52
2024-02-09T10:28:53.373Z,13.57
2024-02-09T10:31:23.905Z,13.56
2024-02-09T10:33:54.719Z,13.59
2024-02-09T10:36:26.242Z,13.71
2024-02-09T10:38:56.566Z,13.87
2024-02-09T10:41:27.490Z,13.91
2024-02-09T10:43:59.697Z,13.97
2024-02-09T10:46:29.370Z,14.06
2024-02-09T10:49:00.533Z,14.13
2024-02-09T10:51:34.081Z,14.12
2024-02-09T10:54:17.856Z,14.25
2024-02-09T10:56:48.264Z,14.37
2024-02-09T10:59:18.759Z,14.56
2024-02-09T11:01:47.254Z,14.71
2024-02-09T11:04:16.398Z,14.90
2024-02-09T11:06:45.101Z,15.13
2024-02-09T11:09:14.015Z,15.31
2024-02-09T11:11:42.362Z,15.43
2024-02-09T11:14:13.126Z,15.52
2024-02-09T11:16:48.516Z,15.59
2024-02-09T11:19:18.698Z,15.70
2024-02-09T11:21:54.312Z,15.71
2024-02-09T11:24:22.649Z,15.78
2024-02-09T11:26:51.045Z,15.86
2024-02-09T11:29:20.747Z,15.82
2024-02-09T11:31:54.292Z,15.79
2024-02-09T11:34:24.349Z,15.80
2024-02-09T11:37:00.342Z,15.90
2024-02-09T11:39:29.943Z,16.01
2024-02-09T11:41:59.098Z,16.15
2024-02-09T11:44:27.661Z,16.22
2024-02-09T11:46:57.418Z,16.28
2024-02-09T11:49:28.632Z,16.26
2024-02-09T11:52:08.028Z,16.24
2024-02-09T11:54:36.280Z,16.27
2024-02-09T11:57:08.585Z,16.30
2024-02-09T11:59:38.840Z,16.32
2024-02-09T12:02:07.874Z,16.35
2024-02-09T12:04:36.651Z,16.35
2024-02-09T12:07:05.846Z,16.38
2024-02-09T12:09:34.170Z,16.38
2024-02-09T12:12:02.364Z,16.40
2024-02-09T12:14:30.812Z,16.36
2024-02-09T12:16:59.227Z,16.35
2024-02-09T12:19:28.112Z,16.30
2024-02-09T12:21:59.018Z,16.31
2024-02-09T12:24:27.826Z,16.36
2024-02-09T12:26:56.024Z,16.34
2024-02-09T12:29:26.285Z,16.37
2024-02-09T12:31:55.639Z,16.38
2024-02-09T12:34:24.595Z,16.41
2024-02-09T12:37:00.760Z,16.44
2024-02-09T12:39:29.770Z,16.50
2024-02-09T12:42:04.043Z,16.50
2024-02-09T12:44:32.484Z,16.57
2024-02-09T12:47:04.930Z,16.67
2024-02-09T12:49:38.908Z,16.74
2024-02-09T12:52:12.885Z,16.79
2024-02-09T12:54:45.359Z,16.85
2024-02-09T12:57:13.960Z,16.89
2024-02-09T12:59:42.750Z,16.89
2024-02-09T13:02:11.889Z,16.96
2024-02-09T13:04:40.501Z,17.00
2024-02-09T13:07:09.064Z,17.04
2024-02-09T13:09:37.782Z,17.07
2024-02-09T13:12:07.850Z,16.99
2024-02-09T13:14:38.767Z,16.96
2024-02-09T13:17:10.527Z,16.99
2024-02-09T13:19:38.783Z,16.97
2024-02-09T13:22:09.694Z,16.97
2024-02-09T13:24:41.017Z,16.96
2024-02-09T13:27:13.942Z,16.93
2024-02-09T13:29:44.249Z,16.92
2024-02-09T13:32:15.155Z,16.90
2024-02-09T13:34:46.485Z,16.88
2024-02-09T13:37:15.273Z,16.85
2024-02-09T13:39:43.512Z,16.83
2024-02-09T13:42:11.739Z,16.80
2024-02-09T13:44:39.882Z,16.77
2024-02-09T13:47:08.083Z,16.72
2024-02-09T13:49:36.347Z,16.67
2024-02-09T13:52:05.967Z,16.55
2024-02-09T13:54:34.460Z,16.49
2024-02-09T13:57:02.685Z,16.39
2024-02-09T13:59:30.877Z,16.34
2024-02-09T14:01:59.152Z,16.30
2024-02-09T14:04:27.804Z,16.21
2024-02-09T14:07:00.786Z,16.14
2024-02-09T14:09:31.486Z,16.04
2024-02-09T14:11:59.779Z,15.96
2024-02-09T14:14:28.577Z,15.91
2024-02-09T14:16:56.799Z,15.86
2024-02-09T14:19:25.217Z,15.76
2024-02-09T14:21:53.634Z,15.68
2024-02-09T14:24:22.700Z,15.58
2024-02-09T14:26:51.894Z,15.48
2024-02-09T14:29:20.272Z,15.25
2024-02-09T14:31:48.557Z,15.20
2024-02-09T14:34:21.202Z,15.07
2024-02-09T14:36:51.945Z,14.92
2024-02-09T14:39:22.261Z,14.86
2024-02-09T14:41:51.384Z,14.78
2024-02-09T14:44:20.269Z,14.67
2024-02-09T14:46:50.879Z,14.57
2024-02-09T14:49:19.499Z,14.53
2024-02-09T14:51:47.851Z,14.42
2024-02-09T14:54:16.281Z,14.40
2024-02-09T14:56:51.990Z,14.33
2024-02-09T14:59:27.407Z,14.19
2024-02-09T15:01:56.669Z,14.08
2024-02-09T15:04:26.470Z,13.98
2024-02-09T15:06:55.017Z,13.91
2024-02-09T15:09:23.472Z,13.81
2024-02-09T15:11:53.432Z,13.71
2024-02-09T15:14:21.685Z,13.65
2024-02-09T15:16:50.215Z,13.55
2024-02-09T15:19:18.483Z,13.47
2024-02-09T15:21:51.691Z,13.37
2024-02-09T15:24:20.689Z,13.33
2024-02-09T15:26:48.852Z,13.21
2024-02-09T15:29:17.047Z,13.15
2024-02-09T15:31:50.314Z,13.08
2024-02-09T15:34:19.000Z,13.01
2024-02-09T15:36:47.443Z,12.97
2024-02-09T15:39:16.512Z,12.94
2024-02-09T15:41:45.728Z,12.90
2024-02-09T15:44:15.062Z,12.88
2024-02-09T15:46:44.228Z,12.82
2024-02-09T15:49:17.410Z,12.77
2024-02-09T15:51:45.814Z,12.70
2024-02-09T15:54:14.139Z,12.66
2024-02-09T15:56:42.329Z,12.62
2024-02-09T15:59:10.565Z,12.61
2024-02-09T16:01:40.398Z,12.58
2024-02-09T16:04:09.943Z,12.53
2024-02-09T16:06:38.215Z,12.54
2024-02-09T16:09:06.831Z,12.51
2024-02-09T16:11:36.037Z,12.50
2024-02-09T16:14:04.882Z,12.48
2024-02-09T16:16:33.579Z,12.51
2024-02-09T16:19:03.246Z,12.51
2024-02-09T16:21:32.353Z,12.55
2024-02-09T16:24:03.085Z,12.58
2024-02-09T16:26:32.484Z,12.60
2024-02-09T16:29:00.929Z,12.61
2024-02-09T16:31:29.188Z,12.60
2024-02-09T16:33:59.492Z,12.59
2024-02-09T16:36:32.286Z,12.62
2024-02-09T16:39:00.797Z,12.59
2024-02-09T16:41:29.214Z,12.57
2024-02-09T16:43:57.567Z,12.56
2024-02-09T16:46:27.056Z,12.54
2024-02-09T16:48:58.389Z,12.55
2024-02-09T16:51:26.967Z,12.56
2024-02-09T16:53:55.173Z,12.57
2024-02-09T16:56:24.015Z,12.57
2024-02-09T16:58:52.381Z,12.57
2024-02-09T17:01:22.915Z,12.56
2024-02-09T17:03:52.539Z,12.55
2024-02-09T17:06:20.985Z,12.54
2024-02-09T17:08:49.264Z,12.53
2024-02-09T17:11:17.466Z,12.52
2024-02-09T17:13:48.053Z,12.51
2024-02-09T17:16:19.939Z,12.49
2024-02-09T17:18:50.401Z,12.47
2024-02-09T17:21:21.038Z,12.43
2024-02-09T17:23:50.265Z,12.39
2024-02-09T17:26:23.296Z,12.37
2024-02-09T17:28:51.713Z,12.35
2024-02-09T17:31:20.251Z,12.35
2024-02-09T17:33:49.079Z,12.27
2024-02-09T17:36:17.525Z,12.24
2024-02-09T17:38:47.737Z,12.17
2024-02-09T17:41:16.203Z,12.10
2024-02-09T17:43:44.427Z,12.06
2024-02-09T17:46:12.689Z,12.02
2024-02-09T17:48:40.983Z,11.97
2024-02-09T17:51:09.306Z,11.95
2024-02-09T17:53:37.532Z,11.93
2024-02-09T17:56:06.033Z,11.87
2024-02-09T17:58:34.482Z,11.79
2024-02-09T18:01:03.154Z,11.78
2024-02-09T18:03:31.376Z,11.75
2024-02-09T18:05:59.649Z,11.73
2024-02-09T18:08:27.869Z,11.71
2024-02-09T18:10:56.099Z,11.69
2024-02-09T18:13:24.471Z,11.69
2024-02-09T18:15:56.262Z,11.69
2024-02-09T18:18:25.945Z,11.67
2024-02-09T18:20:54.317Z,11.69
2024-02-09T18:23:23.005Z,11.70
2024-02-09T18:25:51.292Z,11.70
2024-02-09T18:28:19.645Z,11.70
2024-02-09T18:30:48.973Z,11.69
2024-02-09T18:33:18.574Z,11.66
2024-02-09T18:35:50.147Z,11.63
2024-02-09T18:38:18.313Z,11.60
2024-02-09T18:40:49.332Z,11.59
2024-02-09T18:43:17.734Z,11.60
2024-02-09T18:45:45.889Z,11.59
2024-02-09T18:48:14.403Z,11.58
2024-02-09T18:50:44.748Z,11.54
2024-02-09T18:53:12.935Z,11.45
2024-02-09T18:55:41.353Z,11.44
2024-02-09T18:58:09.702Z,11.39
2024-02-09T19:00:37.960Z,11.39
2024-02-09T19:03:08.549Z,11.36
2024-02-09T19:05:37.312Z,11.33
2024-02-09T19:08:09.275Z,11.31
2024-02-09T19:10:37.622Z,11.30
2024-02-09T19:13:05.816Z,11.30
2024-02-09T19:15:33.996Z,11.28
2024-02-09T19:18:02.324Z,11.27
2024-02-09T19:20:30.555Z,11.26
2024-02-09T19:23:01.258Z,11.24
2024-02-09T19:25:31.593Z,11.24
2024-02-09T19:28:00.510Z,11.22
2024-02-09T19:30:31.758Z,11.22
2024-02-09T19:33:00.457Z,11.21
2024-02-09T19:35:28.765Z,11.19
2024-02-09T19:37:57.100Z,11.19
2024-02-09T19:40:25.368Z,11.19
2024-02-09T19:42:53.776Z,11.17
2024-02-09T19:45:22.145Z,11.17
2024-02-09T19:47:58.239Z,11.16
2024-02-09T19:50:26.709Z,11.13
2024-02-09T19:52:55.309Z,11.12
2024-02-09T19:55:23.772Z,11.12
2024-02-09T19:57:53.093Z,11.09
2024-02-09T20:00:21.537Z,11.09
2024-02-09T20:02:53.732Z,11.08
2024-02-09T20:05:28.244Z,11.06
2024-02-09T20:07:56.823Z,11.06
2024-02-09T20:10:25.067Z,11.05
2024-02-09T20:12:54.375Z,11.03
2024-02-09T20:15:24.914Z,11.03
2024-02-09T20:17:53.175Z,11.03
2024-02-09T20:20:21.573Z,10.98
2024-02-09T20:22:51.682Z,11.00
2024-02-09T20:25:20.139Z,10.97
2024-02-09T20:27:50.726Z,10.95
2024-02-09T20:30:19.068Z,10.94
2024-02-09T20:32:48.479Z,10.90
2024-02-09T20:35:17.723Z,10.87
2024-02-09T20:37:46.525Z,10.85
2024-02-09T20:40:17.275Z,10.83
2024-02-09T20:42:45.919Z,10.79
2024-02-09T20:45:14.305Z,10.75
2024-02-09T20:47:44.454Z,10.72
2024-02-09T20:50:20.059Z,10.69
2024-02-09T20:52:50.992Z,10.68
2024-02-09T20:55:20.882Z,10.63
2024-02-09T20:57:50.988Z,10.62
2024-02-09T21:00:20.903Z,10.59
2024-02-09T21:02:55.262Z,10.57
2024-02-09T21:05:25.847Z,10.55
2024-02-09T21:07:54.354Z,10.56
2024-02-09T21:10:23.035Z,10.54
2024-02-09T21:12:51.262Z,10.54
2024-02-09T21:15:20.897Z,10.54
2024-02-09T21:17:52.543Z,10.52
2024-02-09T21:20:21.789Z,10.51
2024-02-09T21:22:50.746Z,10.52
2024-02-09T21:25:20.880Z,10.48
2024-02-09T21:27:50.403Z,10.45
2024-02-09T21:30:24.343Z,10.43
2024-02-09T21:32:58.768Z,10.38
2024-02-09T21:35:31.730Z,10.37
2024-02-09T21:38:01.795Z,10.38
2024-02-09T21:40:32.687Z,10.38
2024-02-09T21:43:02.957Z,10.34
2024-02-09T21:45:32.244Z,10.29
2024-02-09T21:48:00.630Z,10.25
2024-02-09T21:50:29.528Z,10.25
2024-02-09T21:52:59.645Z,10.23
2024-02-09T21:55:29.282Z,10.18
2024-02-09T21:57:58.029Z,10.08
2024-02-09T22:00:26.538Z,10.04
2024-02-09T22:02:56.057Z,10.00
2024-02-09T22:05:26.265Z,9.93
2024-02-09T22:07:55.125Z,9.89
2024-02-09T22:10:23.795Z,9.91
2024-02-09T22:12:55.554Z,9.81
2024-02-09T22:15:24.407Z,9.81
2024-02-09T22:17:55.580Z,9.79
2024-02-09T22:20:25.460Z,9.76
2024-02-09T22:22:54.919Z,9.70
2024-02-09T22:25:25.487Z,9.67
2024-02-09T22:27:55.664Z,9.62
2024-02-09T22:41:21.951Z,9.60
2024-02-09T22:43:57.992Z,9.60
2024-02-09T22:46:27.403Z,9.56
2024-02-09T22:48:55.856Z,9.51
2024-02-09T22:51:24.177Z,9.50
2024-02-09T22:53:53.307Z,9.46
2024-02-09T22:56:22.324Z,9.43
2024-02-09T22:58:50.886Z,9.43
2024-02-09T23:01:19.529Z,9.43
2024-02-09T23:03:50.026Z,9.43
2024-02-09T23:06:19.668Z,9.39
2024-02-09T23:08:51.745Z,9.39
2024-02-09T23:11:22.137Z,9.41
2024-02-09T23:13:51.174Z,9.47
2024-02-09T23:16:19.805Z,9.51
2024-02-09T23:18:48.234Z,9.47
2024-02-09T23:21:20.595Z,9.44
2024-02-09T23:23:48.753Z,9.41
2024-02-09T23:26:17.634Z,9.41
2024-02-09T23:28:45.888Z,9.41
2024-02-09T23:31:14.151Z,9.40
2024-02-09T23:33:43.838Z,9.38
2024-02-09T23:36:12.050Z,9.31
2024-02-09T23:38:40.952Z,9.27
2024-02-09T23:41:09.215Z,9.24
2024-02-09T23:43:38.124Z,9.19
2024-02-09T23:46:07.082Z,9.10
2024-02-09T23:48:37.966Z,9.06
2024-02-09T23:51:06.637Z,9.03
2024-02-09T23:53:35.823Z,9.01
2024-02-09T23:56:05.333Z,8.96
2024-02-09T23:58:34.596Z,8.93
